sensor_id;sensor_type;location;lat;lon;timestamp;temperature;humidity
20147;DHT22;10234;50.856;15.716;2023-02-01T00:03:37;2.80;99.90
20147;DHT22;10234;50.856;15.716;2023-02-01T00:06:04;2.80;99.90
20147;DHT22;10234;50.856;15.716;2023-02-01T00:10:59;2.70;99.90
20147;DHT22;10234;50.856;15.716;2023-02-01T00:13:28;2.70;99.90
20147;DHT22;10234;50.856;15.716;2023-02-01T00:16:04;3.50;99.90
20147;DHT22;10234;50.856;15.716;2023-02-01T00:18:31;2.50;99.90
20147;DHT22;10234;50.856;15.716;2023-02-01T00:20:57;2.50;99.90
20147;DHT22;10234;50.856;15.716;2023-02-01T00:23:24;2.50;99.90
20147;DHT22;10234;50.856;15.716;2023-02-01T00:25:51;2.60;99.90
20147;DHT22;10234;50.856;15.716;2023-02-01T00:28:18;2.50;99.90
20147;DHT22;10234;50.856;15.716;2023-02-01T00:30:45;2.70;99.90
20147;DHT22;10234;50.856;15.716;2023-02-01T00:33:16;2.80;99.90
20147;DHT22;10234;50.856;15.716;2023-02-01T00:47:58;2.90;99.90
20147;DHT22;10234;50.856;15.716;2023-02-01T00:50:26;2.70;99.90
20147;DHT22;10234;50.856;15.716;2023-02-01T01:00:15;3.00;99.90
20147;DHT22;10234;50.856;15.716;2023-02-01T01:07:39;2.80;99.90
20147;DHT22;10234;50.856;15.716;2023-02-01T01:15:01;2.60;99.90
20147;DHT22;10234;50.856;15.716;2023-02-01T01:19:55;3.00;99.90
20147;DHT22;10234;50.856;15.716;2023-02-01T01:24:59;3.10;99.90
20147;DHT22;10234;50.856;15.716;2023-02-01T01:27:26;3.00;99.90
20147;DHT22;10234;50.856;15.716;2023-02-01T01:32:22;3.10;99.90
20147;DHT22;10234;50.856;15.716;2023-02-01T01:34:49;2.90;99.90
20147;DHT22;10234;50.856;15.716;2023-02-01T01:37:18;2.90;99.90
20147;DHT22;10234;50.856;15.716;2023-02-01T01:42:14;2.70;99.90
20147;DHT22;10234;50.856;15.716;2023-02-01T01:44:58;2.60;99.90
20147;DHT22;10234;50.856;15.716;2023-02-01T01:47:25;2.70;99.90
20147;DHT22;10234;50.856;15.716;2023-02-01T01:52:21;2.50;99.90
20147;DHT22;10234;50.856;15.716;2023-02-01T01:54:50;3.20;99.90
20147;DHT22;10234;50.856;15.716;2023-02-01T01:57:24;2.60;99.90
20147;DHT22;10234;50.856;15.716;2023-02-01T01:59:55;2.50;99.90
20147;DHT22;10234;50.856;15.716;2023-02-01T02:04:51;1.60;99.90
20147;DHT22;10234;50.856;15.716;2023-02-01T02:07:23;2.60;99.90
20147;DHT22;10234;50.856;15.716;2023-02-01T02:09:51;2.30;99.90
20147;DHT22;10234;50.856;15.716;2023-02-01T02:17:30;2.50;99.90
20147;DHT22;10234;50.856;15.716;2023-02-01T02:23:43;2.50;99.90
20147;DHT22;10234;50.856;15.716;2023-02-01T02:26:35;2.60;99.90
20147;DHT22;10234;50.856;15.716;2023-02-01T02:29:36;2.40;99.90
20147;DHT22;10234;50.856;15.716;2023-02-01T02:32:30;2.50;99.90
20147;DHT22;10234;50.856;15.716;2023-02-01T02:35:09;2.50;99.90
20147;DHT22;10234;50.856;15.716;2023-02-01T02:37:43;2.70;99.90
20147;DHT22;10234;50.856;15.716;2023-02-01T02:40:15;2.50;99.90
20147;DHT22;10234;50.856;15.716;2023-02-01T02:42:52;2.40;99.90
20147;DHT22;10234;50.856;15.716;2023-02-01T02:45:41;2.50;99.90
20147;DHT22;10234;50.856;15.716;2023-02-01T02:48:30;2.60;99.90
20147;DHT22;10234;50.856;15.716;2023-02-01T02:51:06;2.50;99.90
20147;DHT22;10234;50.856;15.716;2023-02-01T02:53:56;2.50;99.90
20147;DHT22;10234;50.856;15.716;2023-02-01T02:56:41;2.30;99.90
20147;DHT22;10234;50.856;15.716;2023-02-01T02:59:28;2.50;99.90
20147;DHT22;10234;50.856;15.716;2023-02-01T03:02:14;2.50;99.90
20147;DHT22;10234;50.856;15.716;2023-02-01T03:07:54;2.60;99.90
20147;DHT22;10234;50.856;15.716;2023-02-01T03:10:26;2.70;99.90
20147;DHT22;10234;50.856;15.716;2023-02-01T03:13:00;2.50;99.90
20147;DHT22;10234;50.856;15.716;2023-02-01T03:15:33;2.60;99.90
20147;DHT22;10234;50.856;15.716;2023-02-01T03:18:05;2.60;99.90
20147;DHT22;10234;50.856;15.716;2023-02-01T03:20:34;2.50;99.90
20147;DHT22;10234;50.856;15.716;2023-02-01T03:23:05;2.70;99.90
20147;DHT22;10234;50.856;15.716;2023-02-01T03:25:34;2.60;99.90
20147;DHT22;10234;50.856;15.716;2023-02-01T03:28:03;2.60;99.90
20147;DHT22;10234;50.856;15.716;2023-02-01T03:33:02;2.60;99.90
20147;DHT22;10234;50.856;15.716;2023-02-01T03:35:37;2.60;99.90
20147;DHT22;10234;50.856;15.716;2023-02-01T03:38:13;2.50;99.90
20147;DHT22;10234;50.856;15.716;2023-02-01T03:40:43;2.50;99.90
20147;DHT22;10234;50.856;15.716;2023-02-01T03:43:14;2.40;99.90
20147;DHT22;10234;50.856;15.716;2023-02-01T03:45:47;2.20;99.90
20147;DHT22;10234;50.856;15.716;2023-02-01T03:48:17;2.40;99.90
20147;DHT22;10234;50.856;15.716;2023-02-01T03:50:49;2.40;99.90
20147;DHT22;10234;50.856;15.716;2023-02-01T03:53:21;2.40;99.90
20147;DHT22;10234;50.856;15.716;2023-02-01T03:55:50;2.50;99.90
20147;DHT22;10234;50.856;15.716;2023-02-01T03:58:19;2.40;99.90
20147;DHT22;10234;50.856;15.716;2023-02-01T04:00:50;2.30;99.90
20147;DHT22;10234;50.856;15.716;2023-02-01T04:03:18;2.30;99.90
20147;DHT22;10234;50.856;15.716;2023-02-01T04:05:47;2.50;99.90
20147;DHT22;10234;50.856;15.716;2023-02-01T04:08:14;2.50;99.90
20147;DHT22;10234;50.856;15.716;2023-02-01T04:13:10;2.50;99.90
20147;DHT22;10234;50.856;15.716;2023-02-01T04:18:04;2.40;99.90
20147;DHT22;10234;50.856;15.716;2023-02-01T04:20:34;2.70;99.90
20147;DHT22;10234;50.856;15.716;2023-02-01T04:25:29;2.50;99.90
20147;DHT22;10234;50.856;15.716;2023-02-01T04:30:25;2.20;99.90
20147;DHT22;10234;50.856;15.716;2023-02-01T04:35:19;2.20;99.90
20147;DHT22;10234;50.856;15.716;2023-02-01T04:37:47;2.20;99.90
20147;DHT22;10234;50.856;15.716;2023-02-01T04:40:14;2.30;99.90
20147;DHT22;10234;50.856;15.716;2023-02-01T04:45:10;2.30;99.90
20147;DHT22;10234;50.856;15.716;2023-02-01T04:50:06;2.10;99.90
20147;DHT22;10234;50.856;15.716;2023-02-01T04:52:35;2.40;99.90
20147;DHT22;10234;50.856;15.716;2023-02-01T04:55:03;2.50;99.90
20147;DHT22;10234;50.856;15.716;2023-02-01T04:57:30;2.50;99.90
20147;DHT22;10234;50.856;15.716;2023-02-01T05:02:26;2.40;99.90
20147;DHT22;10234;50.856;15.716;2023-02-01T05:04:53;2.60;99.90
20147;DHT22;10234;50.856;15.716;2023-02-01T05:07:21;2.50;99.90
20147;DHT22;10234;50.856;15.716;2023-02-01T05:12:15;2.40;99.90
20147;DHT22;10234;50.856;15.716;2023-02-01T05:14:59;2.50;99.90
20147;DHT22;10234;50.856;15.716;2023-02-01T05:17:28;2.50;99.90
20147;DHT22;10234;50.856;15.716;2023-02-01T05:19:55;2.50;99.90
20147;DHT22;10234;50.856;15.716;2023-02-01T05:24:49;2.50;99.90
20147;DHT22;10234;50.856;15.716;2023-02-01T05:29:43;2.50;99.90
20147;DHT22;10234;50.856;15.716;2023-02-01T05:32:11;2.50;99.90
20147;DHT22;10234;50.856;15.716;2023-02-01T05:34:39;2.20;99.90
20147;DHT22;10234;50.856;15.716;2023-02-01T05:37:06;2.50;99.90
20147;DHT22;10234;50.856;15.716;2023-02-01T05:39:33;2.40;99.90
20147;DHT22;10234;50.856;15.716;2023-02-01T05:46:55;2.50;99.90
20147;DHT22;10234;50.856;15.716;2023-02-01T05:49:22;2.60;99.90
20147;DHT22;10234;50.856;15.716;2023-02-01T05:51:50;2.60;99.90
20147;DHT22;10234;50.856;15.716;2023-02-01T05:54:17;2.60;99.90
20147;DHT22;10234;50.856;15.716;2023-02-01T05:56:44;2.30;99.90
20147;DHT22;10234;50.856;15.716;2023-02-01T05:59:12;2.60;99.90
20147;DHT22;10234;50.856;15.716;2023-02-01T06:01:39;2.40;99.90
20147;DHT22;10234;50.856;15.716;2023-02-01T06:04:06;2.60;99.90
20147;DHT22;10234;50.856;15.716;2023-02-01T06:06:33;2.80;99.90
20147;DHT22;10234;50.856;15.716;2023-02-01T06:09:01;2.50;99.90
20147;DHT22;10234;50.856;15.716;2023-02-01T06:11:28;2.50;99.90
20147;DHT22;10234;50.856;15.716;2023-02-01T06:13:55;2.50;99.90
20147;DHT22;10234;50.856;15.716;2023-02-01T06:18:50;2.40;99.90
20147;DHT22;10234;50.856;15.716;2023-02-01T06:33:40;2.20;99.90
20147;DHT22;10234;50.856;15.716;2023-02-01T06:36:09;2.20;99.90
20147;DHT22;10234;50.856;15.716;2023-02-01T06:38:37;2.20;99.90
20147;DHT22;10234;50.856;15.716;2023-02-01T06:43:33;2.20;99.90
20147;DHT22;10234;50.856;15.716;2023-02-01T06:46:02;2.30;99.90
20147;DHT22;10234;50.856;15.716;2023-02-01T06:48:29;2.20;99.90
20147;DHT22;10234;50.856;15.716;2023-02-01T06:55:55;2.20;99.90
20147;DHT22;10234;50.856;15.716;2023-02-01T07:03:19;2.20;99.90
20147;DHT22;10234;50.856;15.716;2023-02-01T07:05:46;2.20;99.90
20147;DHT22;10234;50.856;15.716;2023-02-01T07:20:31;2.00;99.90
20147;DHT22;10234;50.856;15.716;2023-02-01T07:22:58;2.30;99.90
20147;DHT22;10234;50.856;15.716;2023-02-01T07:25:25;2.30;99.90
20147;DHT22;10234;50.856;15.716;2023-02-01T07:27:52;2.40;99.90
20147;DHT22;10234;50.856;15.716;2023-02-01T07:30:19;2.30;99.90
20147;DHT22;10234;50.856;15.716;2023-02-01T07:35:15;2.40;99.90
20147;DHT22;10234;50.856;15.716;2023-02-01T07:50:01;2.30;99.90
20147;DHT22;10234;50.856;15.716;2023-02-01T07:52:30;2.20;99.90
20147;DHT22;10234;50.856;15.716;2023-02-01T08:02:36;2.10;99.90
20147;DHT22;10234;50.856;15.716;2023-02-01T08:07:33;2.00;99.90
20147;DHT22;10234;50.856;15.716;2023-02-01T08:12:27;1.90;99.90
20147;DHT22;10234;50.856;15.716;2023-02-01T08:14:54;2.00;99.90
20147;DHT22;10234;50.856;15.716;2023-02-01T08:24:47;1.90;99.90
20147;DHT22;10234;50.856;15.716;2023-02-01T08:29:41;1.90;99.90
20147;DHT22;10234;50.856;15.716;2023-02-01T08:34:36;2.10;99.90
20147;DHT22;10234;50.856;15.716;2023-02-01T08:37:03;2.10;99.90
20147;DHT22;10234;50.856;15.716;2023-02-01T08:41:58;2.10;99.90
20147;DHT22;10234;50.856;15.716;2023-02-01T08:44:43;2.20;99.90
20147;DHT22;10234;50.856;15.716;2023-02-01T08:47:09;2.10;99.90
20147;DHT22;10234;50.856;15.716;2023-02-01T08:49:37;2.30;99.90
20147;DHT22;10234;50.856;15.716;2023-02-01T09:11:45;2.30;99.90
20147;DHT22;10234;50.856;15.716;2023-02-01T09:14:13;2.40;99.90
20147;DHT22;10234;50.856;15.716;2023-02-01T09:21:35;2.70;99.90
20147;DHT22;10234;50.856;15.716;2023-02-01T09:24:02;2.70;99.90
20147;DHT22;10234;50.856;15.716;2023-02-01T09:31:26;2.70;99.90
20147;DHT22;10234;50.856;15.716;2023-02-01T09:41:26;2.90;99.90
20147;DHT22;10234;50.856;15.716;2023-02-01T09:46:29;3.00;99.90
20147;DHT22;10234;50.856;15.716;2023-02-01T09:49:00;3.00;99.90
20147;DHT22;10234;50.856;15.716;2023-02-01T09:51:32;3.00;99.90
20147;DHT22;10234;50.856;15.716;2023-02-01T09:54:04;5.70;99.90
20147;DHT22;10234;50.856;15.716;2023-02-01T09:56:36;3.10;99.90
20147;DHT22;10234;50.856;15.716;2023-02-01T09:59:13;3.10;99.90
20147;DHT22;10234;50.856;15.716;2023-02-01T10:04:14;3.30;99.90
20147;DHT22;10234;50.856;15.716;2023-02-01T10:06:51;3.40;99.90
20147;DHT22;10234;50.856;15.716;2023-02-01T10:12:30;3.30;99.90
20147;DHT22;10234;50.856;15.716;2023-02-01T10:15:05;3.30;99.90
20147;DHT22;10234;50.856;15.716;2023-02-01T10:17:47;3.40;99.90
20147;DHT22;10234;50.856;15.716;2023-02-01T10:20:23;3.60;99.90
20147;DHT22;10234;50.856;15.716;2023-02-01T10:23:00;3.70;99.90
20147;DHT22;10234;50.856;15.716;2023-02-01T10:25:36;3.80;99.90
20147;DHT22;10234;50.856;15.716;2023-02-01T10:28:13;4.00;99.90
20147;DHT22;10234;50.856;15.716;2023-02-01T10:30:44;4.00;99.90
20147;DHT22;10234;50.856;15.716;2023-02-01T10:33:21;4.10;99.90
20147;DHT22;10234;50.856;15.716;2023-02-01T10:35:54;4.00;99.90
20147;DHT22;10234;50.856;15.716;2023-02-01T10:38:25;4.00;99.90
20147;DHT22;10234;50.856;15.716;2023-02-01T10:40:56;6.30;99.90
20147;DHT22;10234;50.856;15.716;2023-02-01T10:43:23;4.40;99.90
20147;DHT22;10234;50.856;15.716;2023-02-01T10:50:53;4.80;99.90
20147;DHT22;10234;50.856;15.716;2023-02-01T10:53:25;5.00;99.90
20147;DHT22;10234;50.856;15.716;2023-02-01T10:55:56;4.80;99.90
20147;DHT22;10234;50.856;15.716;2023-02-01T10:58:27;4.50;99.90
20147;DHT22;10234;50.856;15.716;2023-02-01T11:00:57;4.40;99.90
20147;DHT22;10234;50.856;15.716;2023-02-01T11:03:38;4.20;99.90
20147;DHT22;10234;50.856;15.716;2023-02-01T11:06:18;3.80;99.90
20147;DHT22;10234;50.856;15.716;2023-02-01T11:08:48;3.70;99.90
20147;DHT22;10234;50.856;15.716;2023-02-01T11:11:15;3.80;99.90
20147;DHT22;10234;50.856;15.716;2023-02-01T11:13:43;3.50;99.90
20147;DHT22;10234;50.856;15.716;2023-02-01T11:16:13;3.40;99.90
20147;DHT22;10234;50.856;15.716;2023-02-01T11:18:42;3.40;99.90
20147;DHT22;10234;50.856;15.716;2023-02-01T11:21:10;3.30;99.90
20147;DHT22;10234;50.856;15.716;2023-02-01T11:23:42;3.20;99.90
20147;DHT22;10234;50.856;15.716;2023-02-01T11:26:12;2.90;99.90
20147;DHT22;10234;50.856;15.716;2023-02-01T11:28:50;3.20;99.90
20147;DHT22;10234;50.856;15.716;2023-02-01T11:31:18;3.30;99.90
20147;DHT22;10234;50.856;15.716;2023-02-01T11:33:51;3.20;99.90
20147;DHT22;10234;50.856;15.716;2023-02-01T11:36:22;3.20;99.90
20147;DHT22;10234;50.856;15.716;2023-02-01T11:38:53;3.20;99.90
20147;DHT22;10234;50.856;15.716;2023-02-01T11:41:22;3.30;99.90
20147;DHT22;10234;50.856;15.716;2023-02-01T11:43:53;3.40;99.90
20147;DHT22;10234;50.856;15.716;2023-02-01T11:46:23;3.20;99.90
20147;DHT22;10234;50.856;15.716;2023-02-01T11:48:54;3.60;99.90
20147;DHT22;10234;50.856;15.716;2023-02-01T11:51:37;3.90;99.90
20147;DHT22;10234;50.856;15.716;2023-02-01T11:54:26;4.00;99.90
20147;DHT22;10234;50.856;15.716;2023-02-01T11:57:12;4.10;99.90
20147;DHT22;10234;50.856;15.716;2023-02-01T11:59:58;4.20;99.90
20147;DHT22;10234;50.856;15.716;2023-02-01T12:02:56;4.20;99.90
20147;DHT22;10234;50.856;15.716;2023-02-01T12:05:34;4.10;99.90
20147;DHT22;10234;50.856;15.716;2023-02-01T12:08:17;3.90;99.90
20147;DHT22;10234;50.856;15.716;2023-02-01T12:10:58;4.00;99.90
20147;DHT22;10234;50.856;15.716;2023-02-01T12:13:37;3.90;99.90
20147;DHT22;10234;50.856;15.716;2023-02-01T12:16:19;3.70;99.90
20147;DHT22;10234;50.856;15.716;2023-02-01T12:19:06;3.80;99.90
20147;DHT22;10234;50.856;15.716;2023-02-01T12:21:49;3.90;99.90
20147;DHT22;10234;50.856;15.716;2023-02-01T12:27:49;4.20;99.90
20147;DHT22;10234;50.856;15.716;2023-02-01T12:30:32;4.20;99.90
20147;DHT22;10234;50.856;15.716;2023-02-01T12:33:05;4.90;99.90
20147;DHT22;10234;50.856;15.716;2023-02-01T12:35:44;4.40;99.90
20147;DHT22;10234;50.856;15.716;2023-02-01T12:38:32;4.30;99.90
20147;DHT22;10234;50.856;15.716;2023-02-01T12:41:13;4.20;99.90
20147;DHT22;10234;50.856;15.716;2023-02-01T12:43:46;4.20;99.90
20147;DHT22;10234;50.856;15.716;2023-02-01T12:46:16;4.70;99.90
20147;DHT22;10234;50.856;15.716;2023-02-01T12:48:54;5.20;99.90
20147;DHT22;10234;50.856;15.716;2023-02-01T12:51:26;5.20;99.90
20147;DHT22;10234;50.856;15.716;2023-02-01T12:54:00;5.20;99.90
20147;DHT22;10234;50.856;15.716;2023-02-01T12:56:32;4.80;99.90
20147;DHT22;10234;50.856;15.716;2023-02-01T12:59:04;4.60;99.90
20147;DHT22;10234;50.856;15.716;2023-02-01T13:01:35;4.60;99.90
20147;DHT22;10234;50.856;15.716;2023-02-01T13:04:08;4.70;99.90
20147;DHT22;10234;50.856;15.716;2023-02-01T13:06:41;4.40;99.90
20147;DHT22;10234;50.856;15.716;2023-02-01T13:09:18;4.30;99.90
20147;DHT22;10234;50.856;15.716;2023-02-01T13:11:49;4.50;99.90
20147;DHT22;10234;50.856;15.716;2023-02-01T13:14:25;4.80;99.90
20147;DHT22;10234;50.856;15.716;2023-02-01T13:16:59;4.80;99.90
20147;DHT22;10234;50.856;15.716;2023-02-01T13:19:30;5.20;99.90
20147;DHT22;10234;50.856;15.716;2023-02-01T13:22:00;5.30;99.90
20147;DHT22;10234;50.856;15.716;2023-02-01T13:24:37;5.50;99.90
20147;DHT22;10234;50.856;15.716;2023-02-01T13:32:13;6.10;99.90
20147;DHT22;10234;50.856;15.716;2023-02-01T13:38:08;6.60;99.90
20147;DHT22;10234;50.856;15.716;2023-02-01T13:40:40;6.30;99.90
20147;DHT22;10234;50.856;15.716;2023-02-01T13:43:13;5.60;99.90
20147;DHT22;10234;50.856;15.716;2023-02-01T13:45:46;5.00;99.90
20147;DHT22;10234;50.856;15.716;2023-02-01T13:50:57;4.20;99.90
20147;DHT22;10234;50.856;15.716;2023-02-01T13:53:29;4.00;99.90
20147;DHT22;10234;50.856;15.716;2023-02-01T13:56:00;3.70;99.90
20147;DHT22;10234;50.856;15.716;2023-02-01T13:58:34;3.50;99.90
20147;DHT22;10234;50.856;15.716;2023-02-01T14:01:35;3.30;99.90
20147;DHT22;10234;50.856;15.716;2023-02-01T14:04:04;3.20;99.90
20147;DHT22;10234;50.856;15.716;2023-02-01T14:06:50;3.20;99.90
20147;DHT22;10234;50.856;15.716;2023-02-01T14:09:32;3.20;99.90
20147;DHT22;10234;50.856;15.716;2023-02-01T14:15:24;3.30;99.90
20147;DHT22;10234;50.856;15.716;2023-02-01T14:20:43;3.00;99.90
20147;DHT22;10234;50.856;15.716;2023-02-01T14:23:26;3.40;99.90
20147;DHT22;10234;50.856;15.716;2023-02-01T14:26:17;3.40;99.90
20147;DHT22;10234;50.856;15.716;2023-02-01T14:28:55;3.30;99.90
20147;DHT22;10234;50.856;15.716;2023-02-01T14:31:47;3.30;99.90
20147;DHT22;10234;50.856;15.716;2023-02-01T14:34:20;3.20;99.90
20147;DHT22;10234;50.856;15.716;2023-02-01T14:36:52;3.10;99.90
20147;DHT22;10234;50.856;15.716;2023-02-01T14:39:30;3.00;99.90
20147;DHT22;10234;50.856;15.716;2023-02-01T14:44:36;3.20;99.90
20147;DHT22;10234;50.856;15.716;2023-02-01T14:50:17;3.30;99.90
20147;DHT22;10234;50.856;15.716;2023-02-01T14:52:47;3.40;99.90
20147;DHT22;10234;50.856;15.716;2023-02-01T14:55:17;3.40;99.90
20147;DHT22;10234;50.856;15.716;2023-02-01T14:57:48;3.30;99.90
20147;DHT22;10234;50.856;15.716;2023-02-01T15:00:21;3.30;99.90
20147;DHT22;10234;50.856;15.716;2023-02-01T15:02:50;3.20;99.90
20147;DHT22;10234;50.856;15.716;2023-02-01T15:05:29;3.20;99.90
20147;DHT22;10234;50.856;15.716;2023-02-01T15:08:05;3.20;99.90
20147;DHT22;10234;50.856;15.716;2023-02-01T15:10:43;3.10;99.90
20147;DHT22;10234;50.856;15.716;2023-02-01T15:13:27;3.10;99.90
20147;DHT22;10234;50.856;15.716;2023-02-01T15:16:07;3.10;99.90
20147;DHT22;10234;50.856;15.716;2023-02-01T15:18:36;3.10;99.90
20147;DHT22;10234;50.856;15.716;2023-02-01T15:21:06;2.80;99.90
20147;DHT22;10234;50.856;15.716;2023-02-01T15:26:07;3.00;99.90
20147;DHT22;10234;50.856;15.716;2023-02-01T15:31:03;3.00;99.90
20147;DHT22;10234;50.856;15.716;2023-02-01T15:33:31;2.90;99.90
20147;DHT22;10234;50.856;15.716;2023-02-01T15:38:39;2.70;99.90
20147;DHT22;10234;50.856;15.716;2023-02-01T15:41:13;2.80;99.90
20147;DHT22;10234;50.856;15.716;2023-02-01T15:43:47;2.70;99.90
20147;DHT22;10234;50.856;15.716;2023-02-01T15:46:31;2.80;99.90
20147;DHT22;10234;50.856;15.716;2023-02-01T15:48:59;2.90;99.90
20147;DHT22;10234;50.856;15.716;2023-02-01T15:51:29;2.90;99.90
20147;DHT22;10234;50.856;15.716;2023-02-01T15:53:59;3.00;99.90
20147;DHT22;10234;50.856;15.716;2023-02-01T15:56:29;2.80;99.90
20147;DHT22;10234;50.856;15.716;2023-02-01T15:59:02;2.90;99.90
20147;DHT22;10234;50.856;15.716;2023-02-01T16:04:14;3.10;99.90
20147;DHT22;10234;50.856;15.716;2023-02-01T16:06:49;3.00;99.90
20147;DHT22;10234;50.856;15.716;2023-02-01T16:09:17;3.00;99.90
20147;DHT22;10234;50.856;15.716;2023-02-01T16:11:54;2.90;99.90
20147;DHT22;10234;50.856;15.716;2023-02-01T16:21:44;2.70;99.90
20147;DHT22;10234;50.856;15.716;2023-02-01T16:24:12;2.70;99.90
20147;DHT22;10234;50.856;15.716;2023-02-01T16:26:39;2.70;99.90
20147;DHT22;10234;50.856;15.716;2023-02-01T16:29:06;2.80;99.90
20147;DHT22;10234;50.856;15.716;2023-02-01T16:31:36;2.70;99.90
20147;DHT22;10234;50.856;15.716;2023-02-01T16:41:29;2.90;99.90
20147;DHT22;10234;50.856;15.716;2023-02-01T16:46:25;3.00;99.90
20147;DHT22;10234;50.856;15.716;2023-02-01T16:48:54;2.90;99.90
20147;DHT22;10234;50.856;15.716;2023-02-01T16:51:23;2.90;99.90
20147;DHT22;10234;50.856;15.716;2023-02-01T16:56:20;2.40;99.90
20147;DHT22;10234;50.856;15.716;2023-02-01T17:01:17;2.80;99.90
20147;DHT22;10234;50.856;15.716;2023-02-01T17:03:45;2.80;99.90
20147;DHT22;10234;50.856;15.716;2023-02-01T17:06:14;2.70;99.90
20147;DHT22;10234;50.856;15.716;2023-02-01T17:08:43;2.70;99.90
20147;DHT22;10234;50.856;15.716;2023-02-01T17:11:12;2.60;99.90
20147;DHT22;10234;50.856;15.716;2023-02-01T17:16:19;2.50;99.90
20147;DHT22;10234;50.856;15.716;2023-02-01T17:18:53;2.40;99.90
20147;DHT22;10234;50.856;15.716;2023-02-01T17:46:15;2.30;99.90
20147;DHT22;10234;50.856;15.716;2023-02-01T17:56:13;2.60;99.90
20147;DHT22;10234;50.856;15.716;2023-02-01T18:06:11;2.40;99.90
20147;DHT22;10234;50.856;15.716;2023-02-01T18:11:10;2.50;99.90
20147;DHT22;10234;50.856;15.716;2023-02-01T18:16:16;2.60;99.90
20147;DHT22;10234;50.856;15.716;2023-02-01T18:21:19;2.60;99.90
20147;DHT22;10234;50.856;15.716;2023-02-01T18:26:16;2.60;99.90
20147;DHT22;10234;50.856;15.716;2023-02-01T18:33:49;2.60;99.90
20147;DHT22;10234;50.856;15.716;2023-02-01T18:36:18;2.60;99.90
20147;DHT22;10234;50.856;15.716;2023-02-01T18:41:14;2.60;99.90
20147;DHT22;10234;50.856;15.716;2023-02-01T18:46:09;2.60;99.90
20147;DHT22;10234;50.856;15.716;2023-02-01T18:51:04;2.70;99.90
20147;DHT22;10234;50.856;15.716;2023-02-01T18:53:33;2.60;99.90
20147;DHT22;10234;50.856;15.716;2023-02-01T18:56:00;2.50;99.90
20147;DHT22;10234;50.856;15.716;2023-02-01T19:00:57;2.50;99.90
20147;DHT22;10234;50.856;15.716;2023-02-01T19:03:30;2.60;99.90
20147;DHT22;10234;50.856;15.716;2023-02-01T19:05:58;2.60;99.90
20147;DHT22;10234;50.856;15.716;2023-02-01T19:10:54;2.50;99.90
20147;DHT22;10234;50.856;15.716;2023-02-01T19:15:51;2.40;99.90
20147;DHT22;10234;50.856;15.716;2023-02-01T19:18:18;2.30;99.90
20147;DHT22;10234;50.856;15.716;2023-02-01T19:20:47;2.30;99.90
20147;DHT22;10234;50.856;15.716;2023-02-01T19:25:44;2.20;99.90
20147;DHT22;10234;50.856;15.716;2023-02-01T19:30:41;2.10;99.90
20147;DHT22;10234;50.856;15.716;2023-02-01T19:40:31;1.90;99.90
20147;DHT22;10234;50.856;15.716;2023-02-01T19:50:22;1.80;99.90
20147;DHT22;10234;50.856;15.716;2023-02-01T19:55:16;1.80;99.90
20147;DHT22;10234;50.856;15.716;2023-02-01T20:05:09;1.70;99.90
20147;DHT22;10234;50.856;15.716;2023-02-01T20:10:05;1.70;99.90
20147;DHT22;10234;50.856;15.716;2023-02-01T20:22:23;1.70;99.90
20147;DHT22;10234;50.856;15.716;2023-02-01T20:32:32;1.80;99.90
20147;DHT22;10234;50.856;15.716;2023-02-01T20:50:10;1.30;99.90
20147;DHT22;10234;50.856;15.716;2023-02-01T20:55:05;1.20;99.90
20147;DHT22;10234;50.856;15.716;2023-02-01T21:04:54;0.90;99.90
20147;DHT22;10234;50.856;15.716;2023-02-01T21:07:22;0.90;99.90
20147;DHT22;10234;50.856;15.716;2023-02-01T21:09:49;1.00;99.90
20147;DHT22;10234;50.856;15.716;2023-02-01T21:24:36;1.30;99.90
20147;DHT22;10234;50.856;15.716;2023-02-01T21:41:49;1.40;99.90
20147;DHT22;10234;50.856;15.716;2023-02-01T21:47:00;1.40;99.90
20147;DHT22;10234;50.856;15.716;2023-02-01T21:49:27;1.40;99.90
20147;DHT22;10234;50.856;15.716;2023-02-01T21:51:54;1.30;99.90
20147;DHT22;10234;50.856;15.716;2023-02-01T21:54:21;1.30;99.90
20147;DHT22;10234;50.856;15.716;2023-02-01T21:56:49;1.30;99.90
20147;DHT22;10234;50.856;15.716;2023-02-01T21:59:16;1.20;99.90
20147;DHT22;10234;50.856;15.716;2023-02-01T22:01:43;1.20;99.90
20147;DHT22;10234;50.856;15.716;2023-02-01T22:04:10;1.20;99.90
20147;DHT22;10234;50.856;15.716;2023-02-01T22:06:38;1.20;99.90
20147;DHT22;10234;50.856;15.716;2023-02-01T22:09:05;1.30;99.90
20147;DHT22;10234;50.856;15.716;2023-02-01T22:14:01;1.30;99.90
20147;DHT22;10234;50.856;15.716;2023-02-01T22:18:55;1.30;99.90
20147;DHT22;10234;50.856;15.716;2023-02-01T22:21:22;1.40;99.90
20147;DHT22;10234;50.856;15.716;2023-02-01T22:23:53;1.40;99.90
20147;DHT22;10234;50.856;15.716;2023-02-01T22:26:21;1.40;99.90
20147;DHT22;10234;50.856;15.716;2023-02-01T22:28:48;1.50;99.90
20147;DHT22;10234;50.856;15.716;2023-02-01T22:31:17;2.10;99.90
20147;DHT22;10234;50.856;15.716;2023-02-01T22:33:44;1.50;99.90
20147;DHT22;10234;50.856;15.716;2023-02-01T22:36:11;1.50;99.90
20147;DHT22;10234;50.856;15.716;2023-02-01T22:46:02;2.20;99.90
20147;DHT22;10234;50.856;15.716;2023-02-01T22:48:34;1.60;99.90
20147;DHT22;10234;50.856;15.716;2023-02-01T22:51:01;1.60;99.90
20147;DHT22;10234;50.856;15.716;2023-02-01T22:53:30;1.70;99.90
20147;DHT22;10234;50.856;15.716;2023-02-01T22:55:59;1.60;99.90
20147;DHT22;10234;50.856;15.716;2023-02-01T23:05:49;1.60;99.90
20147;DHT22;10234;50.856;15.716;2023-02-01T23:10:43;1.60;99.90
20147;DHT22;10234;50.856;15.716;2023-02-01T23:15:37;1.70;99.90
20147;DHT22;10234;50.856;15.716;2023-02-01T23:18:04;1.60;99.90
20147;DHT22;10234;50.856;15.716;2023-02-01T23:20:31;1.80;99.90
20147;DHT22;10234;50.856;15.716;2023-02-01T23:22:59;1.50;99.90
20147;DHT22;10234;50.856;15.716;2023-02-01T23:25:26;1.60;99.90
20147;DHT22;10234;50.856;15.716;2023-02-01T23:27:53;1.80;99.90
20147;DHT22;10234;50.856;15.716;2023-02-01T23:30:20;1.90;99.90
20147;DHT22;10234;50.856;15.716;2023-02-01T23:32:46;1.60;99.90
20147;DHT22;10234;50.856;15.716;2023-02-01T23:35:13;1.70;99.90
20147;DHT22;10234;50.856;15.716;2023-02-01T23:37:40;1.70;99.90
20147;DHT22;10234;50.856;15.716;2023-02-01T23:40:10;1.70;99.90
20147;DHT22;10234;50.856;15.716;2023-02-01T23:42:37;1.70;99.90
20147;DHT22;10234;50.856;15.716;2023-02-01T23:45:04;1.70;99.90
20147;DHT22;10234;50.856;15.716;2023-02-01T23:49:58;1.60;99.90
20147;DHT22;10234;50.856;15.716;2023-02-01T23:52:25;1.70;99.90
20147;DHT22;10234;50.856;15.716;2023-02-01T23:54:52;1.70;99.90
20147;DHT22;10234;50.856;15.716;2023-02-01T23:57:20;1.80;99.90
20147;DHT22;10234;50.856;15.716;2023-02-01T23:59:47;1.80;99.90
